Time;durP1;ratioP1;P1;durP2;ratioP2;P2;SDS_P1;SDS_P2;PMS_P1;PMS_P2;Temp;Humidity;BMP_temperature;BMP_pressure;BME280_temperature;BME280_humidity;BME280_pressure;Samples;Min_cycle;Max_cycle;Signal;HPM_P1;HPM_P2
2022/12/03 00:00:05;;;;;;;8.88;2.97;;;;;;;5.55;82.62;101944.78;4983352;28;20113;-66
2022/12/03 00:02:31;;;;;;;8.40;3.95;;;;;;;5.57;83.52;101945.28;4991186;28;20090;-65
2022/12/03 00:04:56;;;;;;;9.68;3.08;;;;;;;5.59;83.53;101943.13;4988668;28;20121;-66
2022/12/03 00:07:22;;;;;;;6.35;3.40;;;;;;;5.42;83.19;101941.72;4970832;28;20328;-66
2022/12/03 00:09:47;;;;;;;6.88;3.80;;;;;;;5.41;83.35;101947.38;4991553;28;20466;-65
2022/12/03 00:12:12;;;;;;;4.25;2.40;;;;;;;5.40;83.03;101941.22;4990598;28;20481;-66
2022/12/03 00:14:38;;;;;;;8.23;3.33;;;;;;;5.39;83.65;101946.84;4986594;28;20046;-66
2022/12/03 00:17:03;;;;;;;9.88;3.58;;;;;;;5.37;83.36;101941.00;4989638;28;20405;-65
2022/12/03 00:19:29;;;;;;;7.63;3.80;;;;;;;5.40;83.64;101948.47;4998871;28;20506;-66
2022/12/03 00:21:54;;;;;;;6.55;3.25;;;;;;;5.30;82.82;101937.91;4991395;28;20030;-66
2022/12/03 00:24:20;;;;;;;6.45;3.05;;;;;;;5.32;83.56;101941.09;4985386;28;20034;-65
2022/12/03 00:26:45;;;;;;;10.48;3.40;;;;;;;5.38;83.48;101937.28;4996167;28;20042;-65
2022/12/03 00:29:11;;;;;;;8.05;3.65;;;;;;;5.45;83.13;101935.81;4981823;28;20041;-66
2022/12/03 00:31:37;;;;;;;11.77;3.97;;;;;;;5.50;82.32;101938.41;4997011;28;20022;-65
2022/12/03 00:34:02;;;;;;;6.90;3.65;;;;;;;5.58;82.15;101925.47;4997632;28;20525;-66
2022/12/03 00:36:28;;;;;;;5.30;2.75;;;;;;;5.45;83.26;101922.47;4991124;28;20507;-65
2022/12/03 00:38:53;;;;;;;5.38;3.13;;;;;;;5.52;83.04;101934.69;4989927;28;20117;-66
2022/12/03 00:41:19;;;;;;;11.35;3.35;;;;;;;5.53;82.71;101926.38;4990951;28;20034;-65
2022/12/03 00:43:44;;;;;;;5.80;3.25;;;;;;;5.58;83.41;101928.16;4991115;28;20022;-67
2022/12/03 00:46:10;;;;;;;7.95;2.97;;;;;;;5.50;83.03;101940.28;4993924;23;20037;-65
2022/12/03 00:48:36;;;;;;;14.68;3.97;;;;;;;5.38;83.90;101934.59;5020192;28;20175;-66
2022/12/03 00:51:01;;;;;;;4.22;2.83;;;;;;;5.30;84.65;101938.69;5023786;28;20044;-66
2022/12/03 00:53:26;;;;;;;5.38;3.45;;;;;;;5.31;83.97;101942.16;5027774;28;20036;-67
2022/12/03 00:56:14;;;;;;;6.80;3.13;;;;;;;5.23;84.37;101938.25;5021145;28;20509;-66
2022/12/03 00:58:40;;;;;;;6.88;3.08;;;;;;;5.18;84.67;101945.53;5021371;28;20038;-66
2022/12/03 01:01:05;;;;;;;5.43;2.83;;;;;;;5.23;84.61;101932.91;5028976;28;20115;-66
2022/12/03 01:03:31;;;;;;;8.70;3.55;;;;;;;5.22;84.64;101931.34;5030793;28;20454;-66
2022/12/03 01:05:56;;;;;;;8.65;2.67;;;;;;;5.14;84.66;101939.16;5030451;28;20556;-66
2022/12/03 01:08:22;;;;;;;7.50;2.90;;;;;;;5.09;84.84;101940.03;5027408;28;20030;-66
2022/12/03 01:10:47;;;;;;;8.75;3.63;;;;;;;5.21;84.87;101937.75;5031364;28;20040;-66
2022/12/03 01:13:12;;;;;;;9.90;4.50;;;;;;;5.30;84.73;101948.59;5031042;28;20029;-66
2022/12/03 01:15:38;;;;;;;8.68;3.70;;;;;;;5.40;83.32;101949.22;5026826;28;20118;-66
2022/12/03 01:18:03;;;;;;;8.93;2.78;;;;;;;5.39;83.38;101945.00;5027516;28;20543;-66
2022/12/03 01:20:29;;;;;;;8.18;3.67;;;;;;;5.49;83.06;101947.53;5026511;28;20061;-66
2022/12/03 01:22:54;;;;;;;8.73;3.47;;;;;;;5.35;83.67;101946.63;5030807;28;20557;-66
2022/12/03 01:25:20;;;;;;;10.38;3.60;;;;;;;5.29;83.37;101953.13;5028699;28;20051;-66
2022/12/03 01:27:45;;;;;;;10.07;4.72;;;;;;;5.19;83.62;101955.91;5032056;28;20030;-66
2022/12/03 01:30:12;;;;;;;7.10;3.53;;;;;;;5.15;84.21;101952.22;5031682;28;20401;-66
2022/12/03 01:32:37;;;;;;;6.10;3.55;;;;;;;5.14;83.47;101948.00;5030838;28;20033;-66
2022/12/03 01:35:03;;;;;;;4.18;2.53;;;;;;;5.09;84.00;101947.25;5017929;28;20044;-66
2022/12/03 01:37:29;;;;;;;9.95;4.68;;;;;;;5.13;84.12;101950.94;5028028;28;20056;-66
2022/12/03 01:39:54;;;;;;;8.63;3.97;;;;;;;5.22;83.91;101952.69;5032362;28;20029;-66
2022/12/03 01:42:29;;;;;;;5.85;2.97;;;;;;;5.14;83.32;101948.00;5030198;28;20020;-65
2022/12/03 01:45:00;;;;;;;8.45;2.78;;;;;;;5.03;83.77;101948.41;5031978;28;20108;-65
2022/12/03 01:47:32;;;;;;;8.80;3.63;;;;;;;5.18;83.59;101946.34;5028079;28;20095;-65
2022/12/03 01:50:03;;;;;;;8.52;4.35;;;;;;;5.10;84.03;101946.16;5027443;28;20425;-65
2022/12/03 01:52:31;;;;;;;;;;;;;;;5.03;84.34;101948.41;5031251;28;20397;-65
2022/12/03 01:54:59;;;;;;;6.43;2.90;;;;;;;5.10;84.79;101941.63;5030855;28;20058;-65
2022/12/03 01:57:29;;;;;;;6.68;3.30;;;;;;;5.16;84.45;101937.81;5027792;28;20037;-64
2022/12/03 01:59:56;;;;;;;14.32;3.90;;;;;;;5.25;84.38;101946.78;5030086;28;20521;-65
2022/12/03 02:02:27;;;;;;;12.45;3.92;;;;;;;5.11;84.80;101945.88;5028779;28;20032;-65
2022/12/03 02:04:53;;;;;;;;;;;;;;;5.06;84.67;101951.28;5028391;28;20037;-65
2022/12/03 02:07:26;;;;;;;6.18;3.30;;;;;;;4.91;84.94;101948.81;5005420;28;19920;-65
2022/12/03 02:09:53;;;;;;;5.82;3.38;;;;;;;4.95;85.10;101939.16;5025960;28;20040;-65
2022/12/03 02:12:24;;;;;;;7.60;3.38;;;;;;;4.98;84.61;101946.56;5027221;28;20037;-65
2022/12/03 02:14:49;;;;;;;7.53;3.22;;;;;;;4.92;84.57;101942.38;5031633;28;20033;-65
2022/12/03 02:17:16;;;;;;;10.27;4.03;;;;;;;4.84;84.80;101945.66;5024965;28;20447;-65
2022/12/03 02:19:41;;;;;;;7.93;3.90;;;;;;;4.83;84.59;101944.09;5027780;28;20032;-65
2022/12/03 02:22:30;;;;;;;6.93;2.95;;;;;;;4.93;85.15;101943.97;5031003;28;20025;-65
2022/12/03 02:25:10;;;;;;;11.88;3.75;;;;;;;4.98;84.07;101949.25;5028428;28;20135;-65
2022/12/03 02:27:36;;;;;;;7.03;3.53;;;;;;;5.08;83.92;101948.31;5025603;28;20240;-65
2022/12/03 02:30:04;;;;;;;13.48;4.25;;;;;;;5.04;84.03;101940.09;5030779;28;20142;-65
2022/12/03 02:32:29;;;;;;;13.13;4.75;;;;;;;4.96;84.46;101948.72;5032006;28;20040;-65
2022/12/03 02:34:55;;;;;;;13.00;4.22;;;;;;;4.92;84.11;101950.38;5026852;28;20033;-64
2022/12/03 02:37:31;;;;;;;15.07;4.40;;;;;;;4.93;83.63;101957.31;5003925;28;20045;-65
2022/12/03 02:40:05;;;;;;;10.73;3.47;;;;;;;4.88;83.55;101957.34;5001430;28;20119;-65
2022/12/03 02:42:33;;;;;;;14.02;4.63;;;;;;;4.83;84.08;101952.09;5030961;28;20083;-65
2022/12/03 02:45:18;;;;;;;9.38;5.03;;;;;;;4.73;83.66;101954.06;5031404;28;20704;-65
2022/12/03 02:47:55;;;;;;;9.77;3.58;;;;;;;4.72;83.81;101953.28;5010197;28;20037;-65
2022/12/03 02:50:29;;;;;;;12.52;4.22;;;;;;;4.66;84.15;101943.75;5029938;28;20030;-65
2022/12/03 02:52:57;;;;;;;3.67;3.25;;;;;;;4.79;83.57;101943.06;5016365;28;20037;-65
2022/12/03 02:55:25;;;;;;;11.20;5.05;;;;;;;4.72;83.64;101939.16;5030713;28;20474;-65
2022/12/03 02:57:51;;;;;;;8.93;3.75;;;;;;;4.67;83.31;101945.31;5030330;28;20044;-65
2022/12/03 03:00:18;;;;;;;9.00;3.92;;;;;;;4.66;83.92;101942.94;5030831;28;20037;-65
2022/12/03 03:02:45;;;;;;;8.88;4.20;;;;;;;4.68;83.06;101946.13;5013153;28;20649;-65
2022/12/03 03:05:12;;;;;;;10.30;2.92;;;;;;;4.64;83.72;101945.91;5029780;28;20049;-65
2022/12/03 03:07:38;;;;;;;6.75;3.13;;;;;;;4.67;82.63;101949.84;5025182;28;20033;-65
2022/12/03 03:10:07;;;;;;;12.25;3.90;;;;;;;4.67;82.85;101950.66;5029842;28;20090;-65
2022/12/03 03:12:33;;;;;;;5.63;3.13;;;;;;;4.73;82.55;101948.72;5027061;28;20067;-65
2022/12/03 03:14:59;;;;;;;5.18;3.42;;;;;;;4.86;82.54;101937.38;5028387;28;20108;-65
2022/12/03 03:17:25;;;;;;;23.33;5.72;;;;;;;4.72;81.93;101941.81;5031157;28;20045;-65
2022/12/03 03:19:50;;;;;;;10.98;4.70;;;;;;;4.71;82.02;101935.69;5029502;28;20482;-65
2022/12/03 03:22:16;;;;;;;10.88;4.32;;;;;;;4.75;82.27;101947.38;5025526;28;20026;-65
2022/12/03 03:24:42;;;;;;;11.95;3.75;;;;;;;4.73;82.59;101938.06;5019366;28;20490;-65
2022/12/03 03:27:07;;;;;;;6.82;3.25;;;;;;;4.67;82.28;101939.19;5023441;28;20124;-65
2022/12/03 03:29:33;;;;;;;8.85;3.42;;;;;;;4.59;82.67;101932.59;5030793;28;20037;-65
2022/12/03 03:32:00;;;;;;;13.98;4.97;;;;;;;4.63;82.61;101938.19;5026709;28;20050;-65
2022/12/03 03:34:26;;;;;;;14.05;5.30;;;;;;;4.56;83.00;101935.84;5020055;28;20044;-65
2022/12/03 03:36:52;;;;;;;6.63;3.38;;;;;;;4.64;82.83;101937.91;5024167;28;20568;-65
2022/12/03 03:39:18;;;;;;;8.82;4.85;;;;;;;4.62;82.76;101932.03;5027684;28;20442;-65
2022/12/03 03:41:45;;;;;;;8.05;3.22;;;;;;;4.69;82.37;101934.34;5008699;28;20428;-65
2022/12/03 03:44:10;;;;;;;10.30;3.97;;;;;;;4.71;82.23;101926.88;5029119;28;20033;-65
2022/12/03 03:46:37;;;;;;;8.85;3.85;;;;;;;4.75;82.43;101931.38;5020242;28;20107;-65
2022/12/03 03:49:05;;;;;;;9.35;4.53;;;;;;;4.64;82.44;101927.22;5017292;28;20041;-65
2022/12/03 03:51:31;;;;;;;9.75;4.53;;;;;;;4.66;82.94;101927.75;5023678;28;20030;-65
2022/12/03 03:53:57;;;;;;;9.15;3.83;;;;;;;4.78;82.18;101925.44;5030515;28;20420;-65
2022/12/03 03:56:23;;;;;;;7.13;3.33;;;;;;;4.63;82.80;101928.28;5030795;28;20072;-65
2022/12/03 03:58:48;;;;;;;8.48;4.22;;;;;;;4.71;83.00;101930.34;5026800;28;20060;-65
2022/12/03 04:01:15;;;;;;;11.82;4.47;;;;;;;4.70;82.39;101922.63;5012431;28;20041;-65
2022/12/03 04:03:41;;;;;;;11.63;3.97;;;;;;;4.82;82.28;101928.38;5011951;28;20080;-65
2022/12/03 04:06:07;;;;;;;9.80;4.18;;;;;;;4.77;82.34;101923.06;5012318;28;20474;-65
2022/12/03 04:08:33;;;;;;;12.82;4.65;;;;;;;4.75;82.09;101925.22;5013055;28;20502;-65
2022/12/03 04:13:42;;;;;;;24.30;5.63;;;;;;;4.30;82.96;101919.28;5023550;28;20040;-65
2022/12/03 04:16:08;;;;;;;6.70;3.45;;;;;;;4.28;83.54;101929.44;5026407;28;20025;-65
2022/12/03 04:18:43;;;;;;;11.85;3.67;;;;;;;4.41;84.17;101931.44;5028656;28;20037;-65
2022/12/03 04:24:00;;;;;;;;;;;;;;;4.40;84.33;101926.41;5031436;28;20052;-65
2022/12/03 04:29:09;;;;;;;9.52;4.60;;;;;;;4.35;84.47;101932.59;5029508;28;20030;-65
2022/12/03 04:37:03;;;;;;;11.13;4.85;;;;;;;4.41;82.98;101925.34;5026372;28;20029;-65
2022/12/03 04:39:29;;;;;;;11.68;4.00;;;;;;;4.63;82.78;101927.50;5022275;28;20405;-65
2022/12/03 04:41:54;;;;;;;13.00;4.35;;;;;;;4.60;82.14;101931.53;5026523;28;20076;-65
2022/12/03 04:44:32;;;;;;;10.57;4.18;;;;;;;4.55;82.57;101920.91;5026178;28;20049;-65
2022/12/03 04:46:58;;;;;;;11.57;4.50;;;;;;;4.37;82.56;101922.44;5026411;28;20033;-65
2022/12/03 04:49:23;;;;;;;9.30;4.57;;;;;;;4.48;83.07;101913.25;5025477;28;20049;-65
2022/12/03 04:51:49;;;;;;;13.07;6.22;;;;;;;4.47;82.76;101919.66;5029459;28;20082;-64
2022/12/03 04:54:14;;;;;;;11.60;4.60;;;;;;;4.36;82.15;101912.84;5011242;28;20038;-65
2022/12/03 04:56:43;;;;;;;11.70;4.55;;;;;;;4.53;82.48;101917.72;5026882;28;20030;-64
2022/12/03 04:59:09;;;;;;;11.10;5.32;;;;;;;4.47;82.31;101918.88;5027956;28;20037;-65
2022/12/03 05:01:34;;;;;;;12.50;4.70;;;;;;;4.37;82.24;101911.78;5028502;28;20038;-65
2022/12/03 05:04:00;;;;;;;8.02;4.50;;;;;;;4.41;82.21;101910.09;5027558;28;20041;-64
2022/12/03 05:06:25;;;;;;;17.25;5.68;;;;;;;4.34;81.85;101909.66;5029330;28;20095;-65
2022/12/03 05:08:51;;;;;;;12.43;4.80;;;;;;;4.31;82.21;101907.56;5026748;28;20034;-65
2022/12/03 05:11:16;;;;;;;10.38;4.22;;;;;;;4.33;82.10;101907.28;5025787;28;20371;-65
2022/12/03 05:13:41;;;;;;;11.40;5.15;;;;;;;4.35;82.19;101913.94;5026851;28;20500;-65
2022/12/03 05:16:07;;;;;;;13.35;4.32;;;;;;;4.25;81.56;101906.03;5025421;28;20036;-65
2022/12/03 05:18:36;;;;;;;17.55;4.55;;;;;;;4.16;82.48;101907.69;5025101;28;20056;-64
2022/12/03 05:21:01;;;;;;;11.98;5.20;;;;;;;3.96;82.62;101896.41;5024683;28;20041;-65
2022/12/03 05:23:27;;;;;;;16.35;5.22;;;;;;;4.16;82.16;101901.56;5027391;28;20044;-64
2022/12/03 05:25:52;;;;;;;15.57;6.30;;;;;;;4.21;81.41;101909.53;5024309;28;20126;-65
2022/12/03 05:28:20;;;;;;;10.70;5.03;;;;;;;4.17;81.48;101897.81;5028283;28;20053;-65
2022/12/03 05:30:46;;;;;;;12.82;5.22;;;;;;;4.20;81.34;101897.28;5023510;28;20125;-65
2022/12/03 05:33:12;;;;;;;15.52;5.63;;;;;;;4.20;80.98;101900.72;5028825;28;20121;-65
2022/12/03 05:35:37;;;;;;;17.58;5.40;;;;;;;3.95;81.78;101889.50;5026283;28;20045;-65
2022/12/03 05:38:03;;;;;;;9.98;4.80;;;;;;;4.04;81.74;101896.63;5026598;28;20033;-64
2022/12/03 05:40:28;;;;;;;10.68;4.50;;;;;;;4.15;81.84;101903.44;5026705;28;20120;-65
2022/12/03 05:42:53;;;;;;;19.27;4.70;;;;;;;4.17;81.52;101908.47;5011785;28;20038;-64
2022/12/03 05:45:21;;;;;;;7.72;3.70;;;;;;;4.18;80.51;101899.44;5019828;28;20374;-64
2022/12/03 05:47:46;;;;;;;14.00;4.72;;;;;;;4.14;80.57;101899.16;5028651;28;20379;-65
2022/12/03 05:50:12;;;;;;;20.95;4.18;;;;;;;4.12;81.37;101904.00;5032801;28;20037;-65
2022/12/03 05:52:37;;;;;;;7.72;4.15;;;;;;;4.16;81.33;101905.03;5029988;28;20034;-65
2022/12/03 05:55:03;;;;;;;8.73;4.40;;;;;;;4.20;81.10;101905.28;5026813;28;20033;-65
2022/12/03 05:57:28;;;;;;;11.32;4.28;;;;;;;4.06;81.53;101904.31;5032478;28;20160;-65
2022/12/03 05:59:54;;;;;;;7.72;4.68;;;;;;;4.03;81.50;101902.22;5025859;28;20030;-65
2022/12/03 06:02:19;;;;;;;12.60;4.97;;;;;;;4.23;79.98;101899.38;5013321;28;20513;-65
2022/12/03 06:04:45;;;;;;;12.65;5.03;;;;;;;4.18;80.50;101904.75;5033418;28;20501;-65
2022/12/03 06:07:10;;;;;;;11.70;3.80;;;;;;;4.09;80.36;101891.22;5032040;28;20363;-65
2022/12/03 06:09:36;;;;;;;9.30;4.20;;;;;;;4.01;80.70;101891.03;5029656;28;20409;-65
2022/12/03 06:12:03;;;;;;;9.70;4.63;;;;;;;3.79;80.85;101891.50;5032439;28;20056;-65
2022/12/03 06:14:30;;;;;;;8.07;3.72;;;;;;;4.06;80.48;101886.47;5032866;28;20040;-65
2022/12/03 06:16:56;;;;;;;15.38;5.25;;;;;;;3.98;80.58;101884.41;5028485;28;20441;-64
2022/12/03 06:19:21;;;;;;;8.35;4.55;;;;;;;3.95;80.54;101884.19;5028751;28;20044;-64
2022/12/03 06:21:47;;;;;;;8.75;3.97;;;;;;;3.88;80.05;101875.69;5023788;28;20493;-64
2022/12/03 06:24:12;;;;;;;17.02;4.95;;;;;;;3.89;80.93;101885.31;5027757;28;20210;-65
2022/12/03 06:26:37;;;;;;;14.52;4.18;;;;;;;3.93;80.68;101887.09;5028245;28;20850;-65
2022/12/03 06:29:03;;;;;;;7.88;4.25;;;;;;;3.98;80.77;101883.63;5022681;28;20030;-65
2022/12/03 06:31:28;;;;;;;7.20;4.70;;;;;;;3.96;80.57;101872.44;5031577;28;20033;-65
2022/12/03 06:33:54;;;;;;;11.77;5.38;;;;;;;3.95;80.30;101878.84;5026949;28;20030;-65
2022/12/03 06:36:20;;;;;;;17.58;4.80;;;;;;;4.15;79.38;101873.31;5026487;28;20034;-65
2022/12/03 06:38:45;;;;;;;11.93;5.30;;;;;;;4.02;79.81;101874.00;5029465;28;20030;-64
2022/12/03 06:41:10;;;;;;;15.50;5.55;;;;;;;4.03;80.14;101871.03;5026291;28;20030;-65
2022/12/03 06:43:36;;;;;;;12.63;4.47;;;;;;;3.98;79.93;101872.97;5028021;28;20583;-65
2022/12/03 06:46:01;;;;;;;10.27;4.13;;;;;;;3.97;80.29;101876.72;5030729;22;20033;-63
2022/12/03 06:48:27;;;;;;;7.53;3.83;;;;;;;3.88;80.17;101871.19;5001546;28;20052;-64
2022/12/03 06:50:52;;;;;;;14.20;4.30;;;;;;;3.90;80.11;101876.22;5013006;28;20091;-64
2022/12/03 06:53:18;;;;;;;13.88;4.60;;;;;;;3.82;80.38;101876.81;4999706;28;20049;-64
2022/12/03 06:55:43;;;;;;;7.07;3.60;;;;;;;3.85;80.80;101878.94;4999858;28;20045;-63
2022/12/03 06:58:09;;;;;;;10.32;3.83;;;;;;;3.90;80.71;101882.34;5000767;28;20485;-65
2022/12/03 07:00:34;;;;;;;12.23;4.63;;;;;;;3.92;80.44;101885.53;5006038;28;20035;-63
2022/12/03 07:03:00;;;;;;;10.02;4.25;;;;;;;3.85;80.51;101889.59;4995128;28;20077;-63
2022/12/03 07:05:28;;;;;;;11.27;4.97;;;;;;;3.87;80.90;101888.22;4995574;28;20030;-63
2022/12/03 07:07:54;;;;;;;11.55;4.45;;;;;;;3.86;80.94;101883.97;4999384;28;20407;-65
2022/12/03 07:10:20;;;;;;;14.90;4.82;;;;;;;3.84;81.30;101890.66;4998808;28;20065;-64
2022/12/03 07:12:45;;;;;;;15.15;5.35;;;;;;;3.87;81.47;101890.09;5003207;28;20521;-63
2022/12/03 07:15:11;;;;;;;13.93;4.93;;;;;;;3.95;81.40;101878.84;4999034;28;20058;-64
2022/12/03 07:17:36;;;;;;;10.20;5.03;;;;;;;3.97;80.75;101888.13;5001141;28;20073;-64
2022/12/03 07:20:03;;;;;;;15.40;4.47;;;;;;;3.98;81.15;101887.06;4999090;28;20034;-64
2022/12/03 07:22:33;;;;;;;9.13;4.00;;;;;;;4.02;81.05;101884.66;4997895;28;20502;-63
2022/12/03 07:24:59;;;;;;;7.93;3.67;;;;;;;3.97;81.13;101892.69;5000005;28;20068;-64
2022/12/03 07:27:24;;;;;;;9.02;3.83;;;;;;;3.97;81.32;101885.47;4993268;28;20041;-64
2022/12/03 07:29:50;;;;;;;8.38;4.90;;;;;;;3.98;81.28;101880.94;4999033;28;20072;-63
2022/12/03 07:32:15;;;;;;;9.35;4.45;;;;;;;3.98;80.87;101886.28;4995140;28;20050;-63
2022/12/03 07:34:44;;;;;;;12.18;4.30;;;;;;;3.98;80.71;101879.09;5003256;28;20109;-64
2022/12/03 07:37:10;;;;;;;7.75;3.53;;;;;;;3.93;80.90;101879.13;5001083;28;20084;-64
2022/12/03 07:39:35;;;;;;;13.93;3.88;;;;;;;3.98;80.76;101878.28;4995946;28;20034;-64
2022/12/03 07:42:01;;;;;;;12.73;4.80;;;;;;;3.97;80.83;101872.16;5002386;28;20398;-66
2022/12/03 07:44:27;;;;;;;9.95;4.82;;;;;;;4.00;80.75;101881.47;4994181;28;20569;-64
2022/12/03 07:46:53;;;;;;;11.10;3.83;;;;;;;3.89;80.94;101874.63;5002155;28;20046;-64
2022/12/03 07:49:18;;;;;;;13.20;4.63;;;;;;;3.93;81.27;101878.34;5006140;28;20110;-64
2022/12/03 07:51:52;;;;;;;8.38;4.15;;;;;;;3.94;81.04;101869.25;5000684;28;20121;-64
2022/12/03 07:54:24;;;;;;;10.55;4.22;;;;;;;3.85;82.17;101879.75;4999010;28;20037;-65
2022/12/03 07:56:50;;;;;;;6.10;3.35;;;;;;;3.89;82.27;101875.41;5002602;28;20107;-64
2022/12/03 07:59:16;;;;;;;10.55;5.00;;;;;;;4.02;81.59;101881.97;4997862;28;20112;-64
2022/12/03 08:01:42;;;;;;;14.05;4.10;;;;;;;4.01;81.89;101883.84;5024043;28;20442;-65
2022/12/03 08:04:08;;;;;;;5.55;2.80;;;;;;;4.02;81.53;101880.13;4983275;28;20034;-64
2022/12/03 08:06:33;;;;;;;15.27;3.38;;;;;;;4.09;81.40;101874.44;4995375;28;20066;-64
2022/12/03 08:09:02;;;;;;;10.90;5.15;;;;;;;4.08;81.52;101880.88;4990829;28;20038;-64
2022/12/03 08:11:28;;;;;;;10.85;4.00;;;;;;;4.15;81.34;101879.47;5002029;28;20034;-64
2022/12/03 08:13:55;;;;;;;7.00;3.40;;;;;;;4.25;81.09;101876.69;4989139;28;20438;-64
2022/12/03 08:16:21;;;;;;;9.55;3.92;;;;;;;4.21;80.75;101869.53;5001899;28;20120;-66
2022/12/03 08:18:48;;;;;;;8.45;3.90;;;;;;;4.24;80.96;101871.66;4995994;28;20045;-66
2022/12/03 08:21:17;;;;;;;17.92;4.82;;;;;;;4.28;80.50;101868.13;4982450;28;20088;-66
2022/12/03 08:23:43;;;;;;;14.88;5.03;;;;;;;4.14;80.72;101867.19;4998229;28;20472;-65
2022/12/03 08:26:28;;;;;;;9.13;3.63;;;;;;;4.17;80.41;101871.97;4986184;28;20066;-65
2022/12/03 08:28:54;;;;;;;9.55;3.95;;;;;;;4.09;80.60;101861.91;4998579;28;20609;-65
2022/12/03 08:31:24;;;;;;;5.75;2.85;;;;;;;4.16;81.53;101880.25;4993455;28;20026;-65
2022/12/03 08:33:52;;;;;;;10.40;4.50;;;;;;;4.28;80.94;101873.47;4991211;28;20113;-65
2022/12/03 08:36:21;;;;;;;12.10;4.47;;;;;;;4.29;81.03;101859.06;5003392;28;20454;-66
2022/12/03 08:38:54;;;;;;;11.10;4.70;;;;;;;4.36;80.96;101869.38;4994658;28;20085;-65
2022/12/03 08:44:26;;;;;;;12.70;4.90;;;;;;;4.38;80.53;101864.56;4999471;28;20041;-65
2022/12/03 08:47:18;;;;;;;10.25;4.40;;;;;;;4.28;80.72;101862.78;4999034;28;20030;-65
2022/12/03 08:49:50;;;;;;;11.82;4.65;;;;;;;4.24;80.24;101855.66;4995925;28;20046;-65
2022/12/03 08:52:18;;;;;;;7.68;4.75;;;;;;;4.21;80.55;101864.19;4994049;28;20034;-65
2022/12/03 08:54:52;;;;;;;7.88;3.65;;;;;;;4.24;80.86;101859.09;4991297;28;20034;-65
2022/12/03 08:57:23;;;;;;;7.68;4.18;;;;;;;4.23;80.89;101860.19;4998665;28;20490;-66
2022/12/03 08:59:53;;;;;;;8.98;4.40;;;;;;;4.29;80.95;101861.72;4995704;28;20451;-65
2022/12/03 09:02:33;;;;;;;10.60;4.82;;;;;;;4.36;80.47;101854.19;4988219;28;20125;-66
2022/12/03 09:05:14;;;;;;;13.65;5.30;;;;;;;4.37;81.07;101854.97;4996926;28;20406;-65
2022/12/03 09:07:40;;;;;;;10.50;4.03;;;;;;;4.45;80.80;101851.69;4998261;28;20559;-66
2022/12/03 09:10:06;;;;;;;14.05;4.30;;;;;;;4.39;80.30;101842.94;4999972;28;20041;-65
2022/12/03 09:12:31;;;;;;;11.68;3.90;;;;;;;4.49;80.59;101837.50;4998764;28;20037;-67
2022/12/03 09:14:57;;;;;;;10.82;3.90;;;;;;;4.60;79.86;101840.84;4992523;28;20113;-65
2022/12/03 09:17:22;;;;;;;17.38;5.05;;;;;;;4.66;80.20;101838.91;5000658;28;20037;-65
2022/12/03 09:19:48;;;;;;;10.63;4.25;;;;;;;4.68;79.66;101844.75;5003978;28;20038;-65
2022/12/03 09:22:16;;;;;;;13.85;4.90;;;;;;;4.70;79.81;101843.41;5009352;28;20026;-66
2022/12/03 09:24:41;;;;;;;10.52;3.88;;;;;;;4.65;80.30;101835.44;4999755;28;20113;-64
2022/12/03 09:27:07;;;;;;;11.10;5.15;;;;;;;4.69;80.15;101841.00;5001680;28;20451;-65
2022/12/03 09:29:32;;;;;;;10.32;4.28;;;;;;;4.77;80.05;101837.69;5012090;28;20021;-65
2022/12/03 09:31:58;;;;;;;12.35;5.38;;;;;;;4.80;79.26;101840.56;5011139;28;20025;-66
2022/12/03 09:34:23;;;;;;;8.20;4.38;;;;;;;4.85;79.48;101834.41;4995948;28;20034;-65
2022/12/03 09:36:49;;;;;;;8.82;4.13;;;;;;;4.84;79.33;101835.50;4999758;28;20053;-65
2022/12/03 09:39:14;;;;;;;11.27;3.72;;;;;;;4.86;78.80;101836.78;5000494;28;20933;-65
2022/12/03 09:41:41;;;;;;;14.98;4.50;;;;;;;4.80;77.77;101837.91;5009584;28;20036;-65
2022/12/03 09:44:08;;;;;;;8.05;4.25;;;;;;;4.52;78.42;101830.81;5007742;28;20132;-64
2022/12/03 09:46:35;;;;;;;11.63;4.40;;;;;;;4.64;78.22;101831.19;5002536;28;20630;-65
2022/12/03 09:49:01;;;;;;;10.82;3.85;;;;;;;4.70;78.18;101822.06;5006366;28;20402;-66
2022/12/03 09:51:31;;;;;;;14.15;5.05;;;;;;;4.67;78.72;101824.47;5000874;28;20034;-64
2022/12/03 09:53:59;;;;;;;13.05;5.55;;;;;;;4.72;78.54;101825.22;5008458;28;20037;-64
2022/12/03 09:56:24;;;;;;;8.98;3.78;;;;;;;4.77;78.65;101825.16;4996754;28;20042;-65
2022/12/03 09:58:50;;;;;;;14.20;4.32;;;;;;;4.83;78.39;101837.34;4989340;28;20044;-66
2022/12/03 10:01:16;;;;;;;8.40;4.07;;;;;;;4.82;79.02;101826.97;4998818;28;20026;-66
2022/12/03 10:03:45;;;;;;;11.15;4.63;;;;;;;4.86;79.13;101823.44;5004198;28;20049;-66
2022/12/03 10:06:22;;;;;;;15.45;3.90;;;;;;;4.91;79.36;101819.91;4992400;28;20037;-66
2022/12/03 10:08:51;;;;;;;15.02;4.25;;;;;;;4.85;79.49;101813.84;4992760;28;20076;-65
2022/12/03 10:11:20;;;;;;;11.18;4.20;;;;;;;4.89;79.51;101811.41;4994053;28;20022;-66
2022/12/03 10:13:46;;;;;;;5.93;3.58;;;;;;;4.99;78.89;101817.41;4995910;28;20112;-66
2022/12/03 10:16:17;;;;;;;11.18;4.70;;;;;;;5.05;78.42;101818.13;4996751;28;20038;-66
2022/12/03 10:18:47;;;;;;;8.98;3.80;;;;;;;5.03;78.97;101813.03;4996970;28;20091;-66
2022/12/03 10:21:21;;;;;;;6.43;4.18;;;;;;;5.09;78.83;101816.47;4993264;28;20169;-66
2022/12/03 10:23:49;;;;;;;14.63;5.05;;;;;;;5.12;79.14;101806.00;4999926;28;20121;-66
2022/12/03 10:26:17;;;;;;;9.75;3.92;;;;;;;5.19;78.73;101808.28;4993571;28;20029;-66
2022/12/03 10:28:45;;;;;;;10.77;3.70;;;;;;;5.17;78.04;101810.44;4972157;28;20041;-66
2022/12/03 10:31:12;;;;;;;7.30;3.72;;;;;;;5.18;78.71;101804.03;4994002;28;20041;-66
2022/12/03 10:33:41;;;;;;;13.13;4.75;;;;;;;5.22;78.56;101805.06;4994593;28;20037;-66
2022/12/03 10:36:20;;;;;;;9.10;3.83;;;;;;;5.21;78.36;101796.25;4995295;28;20374;-66
2022/12/03 10:39:04;;;;;;;9.52;3.92;;;;;;;5.07;78.20;101799.94;4984959;28;20080;-66
2022/12/03 10:41:29;;;;;;;15.15;4.45;;;;;;;5.14;78.39;101801.16;5005157;28;20045;-66
2022/12/03 10:44:14;;;;;;;10.18;4.38;;;;;;;5.29;77.77;101792.91;5000512;28;20042;-66
2022/12/03 10:46:40;;;;;;;13.18;3.80;;;;;;;5.28;77.68;101791.31;4994179;28;20699;-67
2022/12/03 10:49:12;;;;;;;12.02;4.53;;;;;;;5.41;78.04;101792.47;4997327;28;20079;-66
2022/12/03 10:51:38;;;;;;;12.88;4.60;;;;;;;5.32;77.19;101786.22;5009701;28;20433;-66
2022/12/03 10:54:14;;;;;;;11.85;5.00;;;;;;;5.33;77.53;101788.59;5000765;28;20079;-66
2022/12/03 10:56:40;;;;;;;9.75;3.72;;;;;;;5.36;77.00;101787.97;4997014;28;20031;-66
2022/12/03 10:59:11;;;;;;;10.00;4.07;;;;;;;5.34;76.49;101784.03;5006598;28;20037;-66
2022/12/03 11:01:37;;;;;;;11.18;3.88;;;;;;;5.23;77.29;101772.72;5004677;28;20399;-66
2022/12/03 11:04:03;;;;;;;9.13;4.47;;;;;;;5.33;76.68;101775.22;5003511;28;20034;-66
2022/12/03 11:06:31;;;;;;;7.28;4.40;;;;;;;5.33;76.87;101771.75;5005963;28;20034;-66
2022/12/03 11:08:58;;;;;;;7.35;3.95;;;;;;;5.18;77.59;101764.78;5000095;28;20448;-66
2022/12/03 11:11:24;;;;;;;9.52;4.40;;;;;;;5.27;77.18;101762.25;5006256;28;20042;-66
2022/12/03 11:13:53;;;;;;;9.02;3.85;;;;;;;5.36;77.23;101763.19;5003138;28;20057;-66
2022/12/03 11:16:40;;;;;;;13.05;4.07;;;;;;;5.50;76.86;101761.31;5003001;28;20060;-66
2022/12/03 11:19:11;;;;;;;6.65;3.97;;;;;;;5.59;77.75;101756.13;5004449;28;20103;-67
2022/12/03 11:22:12;;;;;;;9.35;3.78;;;;;;;5.65;77.73;101752.25;5000467;28;20038;-66
2022/12/03 11:24:39;;;;;;;11.00;4.30;;;;;;;5.64;76.97;101756.81;4924604;29;20050;-67
2022/12/03 11:27:06;;;;;;;12.52;4.82;;;;;;;5.59;75.85;101748.09;4986268;28;20069;-66
2022/12/03 11:29:53;;;;;;;10.75;4.45;;;;;;;5.44;76.54;101746.47;5004574;28;20579;-66
2022/12/03 11:32:37;;;;;;;13.55;3.78;;;;;;;5.52;76.89;101739.69;5010536;28;20041;-66
2022/12/03 11:35:22;;;;;;;11.27;4.47;;;;;;;5.58;76.56;101746.50;5001807;28;20044;-66
2022/12/03 11:37:47;;;;;;;9.55;5.03;;;;;;;5.40;76.59;101734.81;5000219;28;20038;-66
2022/12/03 11:40:15;;;;;;;12.82;5.75;;;;;;;5.24;76.57;101739.59;5000052;28;20030;-66
2022/12/03 11:42:42;;;;;;;10.05;4.63;;;;;;;5.38;76.18;101726.28;4999353;28;20056;-66
2022/12/03 11:45:07;;;;;;;8.85;4.10;;;;;;;5.45;75.23;101726.69;5002829;28;20836;-66
2022/12/03 11:47:36;;;;;;;4.80;2.75;;;;;;;5.35;76.02;101719.66;5002258;28;20129;-65